Time;durP1;ratioP1;P1;durP2;ratioP2;P2;SDS_P1;SDS_P2;PMS_P1;PMS_P2;Temp;Humidity;BMP_temperature;BMP_pressure;BME280_temperature;BME280_humidity;BME280_pressure;Samples;Min_cycle;Max_cycle;Signal;HPM_P1;HPM_P2
2022/07/02 00:00:41;;;;;;;7.10;4.70;;;;;;;;;;5075957;28;20103;-67
2022/07/02 00:03:07;;;;;;;6.27;4.63;;;;;;;;;;5085135;28;20057;-67
2022/07/02 00:05:32;;;;;;;10.00;4.77;;;;;;;;;;5082995;28;20028;-67
2022/07/02 00:07:58;;;;;;;10.70;4.63;;;;;;;;;;5078786;28;20073;-67
2022/07/02 00:10:23;;;;;;;7.93;4.73;;;;;;;;;;5073578;28;20056;-67
2022/07/02 00:12:48;;;;;;;9.30;5.10;;;;;;;;;;5076162;28;20031;-67
2022/07/02 00:15:14;;;;;;;8.83;4.90;;;;;;;;;;5080227;28;20093;-68
2022/07/02 00:17:40;;;;;;;6.77;4.67;;;;;;;;;;5085521;28;20047;-67
2022/07/02 00:20:05;;;;;;;7.80;5.00;;;;;;;;;;5078019;28;20020;-67
2022/07/02 00:22:32;;;;;;;8.33;5.20;;;;;;;;;;5080500;28;20031;-67
2022/07/02 00:24:57;;;;;;;11.97;7.03;;;;;;;;;;5087603;28;20012;-67
2022/07/02 00:27:23;;;;;;;8.17;5.77;;;;;;;;;;5073765;28;20031;-67
2022/07/02 00:29:48;;;;;;;8.23;6.10;;;;;;;;;;5091886;28;20024;-67
2022/07/02 00:32:14;;;;;;;11.07;6.43;;;;;;;;;;5085536;28;20023;-67
2022/07/02 00:34:39;;;;;;;10.80;6.10;;;;;;;;;;5087078;28;20033;-67
2022/07/02 00:37:06;;;;;;;12.93;6.47;;;;;;;;;;5074710;28;20024;-67
2022/07/02 00:39:31;;;;;;;12.33;6.43;;;;;;;;;;5090181;28;20034;-67
2022/07/02 00:41:58;;;;;;;8.07;6.50;;;;;;;;;;5078336;28;20020;-67
2022/07/02 00:44:23;;;;;;;9.10;6.70;;;;;;;;;;5080831;28;20020;-67
2022/07/02 00:46:49;;;;;;;9.57;6.60;;;;;;;;;;5071020;28;20078;-67
2022/07/02 00:49:15;;;;;;;11.17;6.67;;;;;;;;;;5089753;28;20030;-67
2022/07/02 00:51:40;;;;;;;10.07;6.93;;;;;;;;;;5089366;28;20035;-67
2022/07/02 00:54:06;;;;;;;9.83;7.00;;;;;;;;;;5091586;28;20024;-67
2022/07/02 00:56:31;;;;;;;10.90;6.50;;;;;;;;;;5090398;28;20039;-68
2022/07/02 00:58:57;;;;;;;11.37;6.67;;;;;;;;;;5083159;28;20031;-67
2022/07/02 01:01:22;;;;;;;9.73;6.63;;;;;;;;;;5090450;28;20091;-67
2022/07/02 01:03:49;;;;;;;15.73;7.20;;;;;;;;;;5088780;28;20036;-67
2022/07/02 01:06:15;;;;;;;11.00;6.87;;;;;;;;;;5077088;28;20016;-67
2022/07/02 01:11:25;;;;;;;10.73;6.93;;;;;;;;;;5084595;28;20080;-67
2022/07/02 01:13:51;;;;;;;10.77;7.37;;;;;;;;;;5083472;28;20099;-67
2022/07/02 01:16:16;;;;;;;10.03;7.10;;;;;;;;;;5082522;28;20123;-68
2022/07/02 01:18:41;;;;;;;13.13;7.87;;;;;;;;;;5071683;28;20036;-67
2022/07/02 01:21:06;;;;;;;15.47;7.80;;;;;;;;;;5084010;28;20036;-67
2022/07/02 01:23:32;;;;;;;11.60;7.43;;;;;;;;;;5078207;28;20036;-67
2022/07/02 01:25:57;;;;;;;13.57;7.90;;;;;;;;;;5070836;28;20457;-67
2022/07/02 01:28:22;;;;;;;10.70;8.10;;;;;;;;;;5078967;28;20419;-68
2022/07/02 01:30:48;;;;;;;11.83;8.00;;;;;;;;;;5069745;28;20031;-67
2022/07/02 01:33:14;;;;;;;9.70;7.63;;;;;;;;;;5084796;28;20460;-68
2022/07/02 01:35:39;;;;;;;12.63;7.60;;;;;;;;;;5086167;28;20090;-67
2022/07/02 01:38:04;;;;;;;10.37;7.50;;;;;;;;;;5070724;28;20090;-68
2022/07/02 01:40:29;;;;;;;13.40;8.97;;;;;;;;;;5084305;28;20020;-68
2022/07/02 01:42:54;;;;;;;12.50;8.70;;;;;;;;;;5089619;28;20043;-68
2022/07/02 01:45:20;;;;;;;14.70;8.97;;;;;;;;;;5073892;28;20522;-67
2022/07/02 01:47:45;;;;;;;11.93;9.10;;;;;;;;;;5071774;28;20032;-67
2022/07/02 01:50:10;;;;;;;11.07;9.03;;;;;;;;;;5070521;28;20067;-67
2022/07/02 01:52:36;;;;;;;14.17;9.10;;;;;;;;;;5089921;28;20020;-68
2022/07/02 01:55:02;;;;;;;15.63;9.23;;;;;;;;;;5090305;28;20032;-68
2022/07/02 01:57:33;;;;;;;13.87;8.93;;;;;;;;;;5089074;28;20024;-68
2022/07/02 01:59:58;;;;;;;16.75;9.48;;;;;;;;;;5088961;28;20046;-68
2022/07/02 02:02:24;;;;;;;14.47;9.33;;;;;;;;;;5086453;28;20020;-68
2022/07/02 02:04:49;;;;;;;17.43;9.50;;;;;;;;;;5088225;28;20032;-68
2022/07/02 02:07:14;;;;;;;13.57;9.90;;;;;;;;;;5089241;28;20012;-68
2022/07/02 02:09:39;;;;;;;15.07;9.73;;;;;;;;;;5091485;28;20149;-67
2022/07/02 02:12:05;;;;;;;14.00;9.27;;;;;;;;;;5089744;28;20145;-67
2022/07/02 02:14:30;;;;;;;15.83;9.03;;;;;;;;;;5077919;28;20380;-67
2022/07/02 02:16:55;;;;;;;14.00;9.83;;;;;;;;;;5078799;28;20066;-67
2022/07/02 02:19:21;;;;;;;19.60;10.77;;;;;;;;;;5074385;28;20032;-67
2022/07/02 02:21:46;;;;;;;15.83;10.50;;;;;;;;;;5086325;28;20028;-67
2022/07/02 02:24:11;;;;;;;15.33;10.97;;;;;;;;;;5081372;28;20052;-67
2022/07/02 02:26:36;;;;;;;16.20;11.67;;;;;;;;;;5093089;28;20028;-67
2022/07/02 02:29:02;;;;;;;15.77;10.00;;;;;;;;;;5093577;28;20031;-67
2022/07/02 02:31:27;;;;;;;16.70;11.53;;;;;;;;;;5076400;28;20503;-67
2022/07/02 02:33:52;;;;;;;14.47;10.97;;;;;;;;;;5084027;28;20025;-67
2022/07/02 02:36:17;;;;;;;16.87;11.97;;;;;;;;;;5091854;28;20100;-67
2022/07/02 02:38:46;;;;;;;16.33;12.37;;;;;;;;;;5089580;28;20089;-67
2022/07/02 02:41:11;;;;;;;20.37;12.53;;;;;;;;;;5092256;28;20048;-67
2022/07/02 02:43:37;;;;;;;19.47;12.27;;;;;;;;;;5091728;28;20052;-67
2022/07/02 02:46:03;;;;;;;19.67;13.20;;;;;;;;;;5078494;28;20024;-67
2022/07/02 02:48:28;;;;;;;17.20;12.53;;;;;;;;;;5074433;28;20385;-67
2022/07/02 02:50:55;;;;;;;19.03;13.30;;;;;;;;;;5073610;28;20165;-67
2022/07/02 02:53:20;;;;;;;17.83;13.37;;;;;;;;;;5083806;28;20035;-68
2022/07/02 02:55:45;;;;;;;18.70;14.30;;;;;;;;;;5076668;28;20376;-67
2022/07/02 02:58:10;;;;;;;19.93;13.83;;;;;;;;;;5077686;28;20051;-67
2022/07/02 03:00:36;;;;;;;21.90;14.23;;;;;;;;;;5081475;28;20039;-67
2022/07/02 03:03:01;;;;;;;21.80;14.97;;;;;;;;;;5088240;28;20023;-68
2022/07/02 03:05:26;;;;;;;18.90;13.40;;;;;;;;;;5081970;28;20024;-67
2022/07/02 03:07:51;;;;;;;19.20;13.77;;;;;;;;;;5074710;28;20107;-68
2022/07/02 03:10:17;;;;;;;21.17;13.50;;;;;;;;;;5074340;28;20538;-67
2022/07/02 03:12:42;;;;;;;17.87;12.97;;;;;;;;;;5085288;28;20077;-67
2022/07/02 03:15:07;;;;;;;18.23;13.50;;;;;;;;;;5086966;28;20475;-67
2022/07/02 03:17:32;;;;;;;16.73;11.77;;;;;;;;;;5074248;28;20551;-67
2022/07/02 03:19:58;;;;;;;18.67;12.57;;;;;;;;;;5073058;28;20031;-68
2022/07/02 03:22:23;;;;;;;24.30;12.13;;;;;;;;;;5075632;28;20023;-67
2022/07/02 03:24:48;;;;;;;21.30;12.20;;;;;;;;;;5088072;28;20023;-68
2022/07/02 03:27:14;;;;;;;23.50;13.07;;;;;;;;;;5087611;28;20706;-67
2022/07/02 03:29:39;;;;;;;18.03;13.17;;;;;;;;;;5081423;28;20068;-67
2022/07/02 03:32:04;;;;;;;19.97;13.13;;;;;;;;;;5087004;28;20047;-68
2022/07/02 03:34:30;;;;;;;19.73;12.60;;;;;;;;;;5087508;28;20024;-67
2022/07/02 03:36:55;;;;;;;20.00;13.00;;;;;;;;;;5079780;28;20039;-67
2022/07/02 03:39:20;;;;;;;20.73;12.97;;;;;;;;;;5074167;28;20142;-67
2022/07/02 03:41:45;;;;;;;19.53;12.87;;;;;;;;;;5074542;28;20029;-67
2022/07/02 03:44:11;;;;;;;19.70;13.43;;;;;;;;;;5072418;28;20029;-68
2022/07/02 03:46:36;;;;;;;22.23;13.80;;;;;;;;;;5080536;28;20016;-67
2022/07/02 03:49:01;;;;;;;18.37;12.33;;;;;;;;;;5086877;28;20020;-68
2022/07/02 03:51:26;;;;;;;16.93;11.47;;;;;;;;;;5085499;28;20028;-68
2022/07/02 03:53:52;;;;;;;13.30;9.50;;;;;;;;;;5077185;28;20032;-68
2022/07/02 03:56:17;;;;;;;13.43;9.00;;;;;;;;;;5077299;28;20028;-67
2022/07/02 03:58:42;;;;;;;13.23;8.70;;;;;;;;;;5081008;28;20108;-68
2022/07/02 04:01:07;;;;;;;15.53;8.70;;;;;;;;;;5082338;28;20477;-67
2022/07/02 04:03:34;;;;;;;12.10;8.13;;;;;;;;;;5089056;28;20027;-67
2022/07/02 04:05:59;;;;;;;10.27;8.10;;;;;;;;;;5083614;28;20102;-68
2022/07/02 04:08:24;;;;;;;10.50;7.30;;;;;;;;;;5092344;28;20100;-67
2022/07/02 04:10:49;;;;;;;13.97;7.30;;;;;;;;;;5088071;28;20036;-67
2022/07/02 04:13:15;;;;;;;10.07;5.83;;;;;;;;;;5074143;28;20078;-68
2022/07/02 04:15:40;;;;;;;10.27;5.30;;;;;;;;;;5079022;28;20768;-68
2022/07/02 04:18:05;;;;;;;12.80;5.60;;;;;;;;;;5079010;28;20028;-68
2022/07/02 04:20:32;;;;;;;8.50;4.50;;;;;;;;;;5076637;28;20036;-68
2022/07/02 04:22:57;;;;;;;9.57;4.97;;;;;;;;;;5088998;28;20028;-68
2022/07/02 04:25:22;;;;;;;7.00;4.43;;;;;;;;;;5075464;28;20036;-68
2022/07/02 04:27:48;;;;;;;8.53;4.30;;;;;;;;;;5073118;28;20027;-68
2022/07/02 04:30:13;;;;;;;10.33;4.57;;;;;;;;;;5078338;28;20043;-68
2022/07/02 04:32:38;;;;;;;12.10;4.40;;;;;;;;;;5080940;28;20044;-69
2022/07/02 04:35:04;;;;;;;12.50;4.20;;;;;;;;;;5084938;28;20020;-68
2022/07/02 04:37:29;;;;;;;13.43;4.00;;;;;;;;;;5090486;28;20028;-68
2022/07/02 04:39:54;;;;;;;8.05;4.20;;;;;;;;;;5084000;28;20019;-68
2022/07/02 04:42:19;;;;;;;11.98;4.13;;;;;;;;;;5086650;28;20097;-69
2022/07/02 04:44:45;;;;;;;11.55;3.97;;;;;;;;;;5087280;28;20032;-68
2022/07/02 04:47:10;;;;;;;6.00;3.42;;;;;;;;;;5074621;28;20024;-68
2022/07/02 04:49:35;;;;;;;11.23;3.75;;;;;;;;;;5088273;28;20023;-68
2022/07/02 04:52:00;;;;;;;8.07;3.70;;;;;;;;;;5076915;28;20043;-68
2022/07/02 04:54:26;;;;;;;9.70;4.00;;;;;;;;;;5079826;28;20024;-68
2022/07/02 04:56:51;;;;;;;11.93;3.50;;;;;;;;;;5082641;28;20032;-68
2022/07/02 04:59:17;;;;;;;11.20;3.60;;;;;;;;;;5079665;28;20024;-68
2022/07/02 05:01:42;;;;;;;18.52;4.03;;;;;;;;;;5082069;28;20396;-68
2022/07/02 05:04:07;;;;;;;15.02;3.50;;;;;;;;;;5082307;28;20525;-68
2022/07/02 05:06:32;;;;;;;10.82;3.50;;;;;;;;;;5080976;28;20076;-68
2022/07/02 05:08:57;;;;;;;15.98;4.20;;;;;;;;;;5080816;28;20032;-68
2022/07/02 05:11:23;;;;;;;10.82;3.40;;;;;;;;;;5086879;28;20020;-68
2022/07/02 05:13:48;;;;;;;13.05;3.92;;;;;;;;;;5074373;28;20029;-68
2022/07/02 05:16:14;;;;;;;10.68;3.42;;;;;;;;;;5085533;28;20372;-68
2022/07/02 05:18:39;;;;;;;8.93;3.67;;;;;;;;;;5076478;28;20024;-68
2022/07/02 05:21:04;;;;;;;8.27;3.72;;;;;;;;;;5070964;28;20020;-68
2022/07/02 05:23:30;;;;;;;5.47;2.88;;;;;;;;;;5071344;28;20037;-68
2022/07/02 05:25:55;;;;;;;8.52;2.83;;;;;;;;;;5071398;28;20020;-68
2022/07/02 05:28:20;;;;;;;8.40;2.78;;;;;;;;;;5078816;28;20020;-68
2022/07/02 05:30:45;;;;;;;7.25;2.75;;;;;;;;;;5080830;28;20029;-69
2022/07/02 05:33:11;;;;;;;9.48;3.00;;;;;;;;;;5091153;28;20048;-68
2022/07/02 05:35:36;;;;;;;4.93;2.50;;;;;;;;;;5087533;28;20016;-68
2022/07/02 05:38:01;;;;;;;6.15;2.40;;;;;;;;;;5074340;28;20055;-68
2022/07/02 05:40:26;;;;;;;5.05;2.60;;;;;;;;;;5079934;28;20062;-69
2022/07/02 05:42:52;;;;;;;6.95;2.50;;;;;;;;;;5086073;28;20056;-68
2022/07/02 05:45:17;;;;;;;6.47;2.58;;;;;;;;;;5094252;28;20364;-68
2022/07/02 05:47:42;;;;;;;8.98;2.30;;;;;;;;;;5081514;28;20031;-68
2022/07/02 05:50:08;;;;;;;5.45;2.10;;;;;;;;;;5074529;28;20028;-68
2022/07/02 05:52:33;;;;;;;5.78;2.30;;;;;;;;;;5074893;28;20020;-68
2022/07/02 05:54:58;;;;;;;6.43;2.15;;;;;;;;;;5074884;28;20418;-68
2022/07/02 05:57:24;;;;;;;5.15;1.83;;;;;;;;;;5074153;28;20501;-68
2022/07/02 05:59:49;;;;;;;8.63;2.10;;;;;;;;;;5083588;28;20380;-68
2022/07/02 06:02:14;;;;;;;5.95;2.00;;;;;;;;;;5095009;28;20376;-68
2022/07/02 06:04:39;;;;;;;4.80;1.83;;;;;;;;;;5093736;28;20031;-68
2022/07/02 06:09:48;;;;;;;5.50;2.05;;;;;;;;;;5094589;28;20027;-68
2022/07/02 06:12:13;;;;;;;5.13;1.80;;;;;;;;;;5094217;28;20016;-68
2022/07/02 06:14:39;;;;;;;5.38;1.80;;;;;;;;;;5094477;28;20023;-68
2022/07/02 06:17:04;;;;;;;4.00;1.70;;;;;;;;;;5084964;28;20166;-68
2022/07/02 06:19:29;;;;;;;3.97;1.65;;;;;;;;;;5077025;28;20460;-69
2022/07/02 06:21:54;;;;;;;7.72;1.85;;;;;;;;;;5073981;28;20473;-69
2022/07/02 06:24:19;;;;;;;4.93;1.90;;;;;;;;;;5074156;28;20028;-68
2022/07/02 06:26:45;;;;;;;5.32;1.70;;;;;;;;;;5073975;28;20076;-68
2022/07/02 06:29:10;;;;;;;6.57;2.05;;;;;;;;;;5073999;28;20507;-69
2022/07/02 06:31:36;;;;;;;5.80;1.85;;;;;;;;;;5085590;28;20111;-69
2022/07/02 06:34:02;;;;;;;5.43;2.10;;;;;;;;;;5094442;28;20039;-68
2022/07/02 06:36:27;;;;;;;6.65;2.00;;;;;;;;;;5094160;28;20016;-68
2022/07/02 06:38:52;;;;;;;5.93;2.13;;;;;;;;;;5090609;28;20020;-68
2022/07/02 06:44:02;;;;;;;7.15;2.05;;;;;;;;;;5093870;28;20035;-68
2022/07/02 06:46:28;;;;;;;6.68;2.47;;;;;;;;;;5074877;28;20021;-68
2022/07/02 06:48:53;;;;;;;8.00;2.15;;;;;;;;;;5073820;28;20130;-69
2022/07/02 06:51:19;;;;;;;5.15;2.13;;;;;;;;;;5088916;28;20016;-68
2022/07/02 06:53:44;;;;;;;5.18;2.28;;;;;;;;;;5093862;28;20051;-68
2022/07/02 06:56:10;;;;;;;7.30;2.08;;;;;;;;;;5092855;28;20411;-68
2022/07/02 06:58:35;;;;;;;5.72;1.98;;;;;;;;;;5093715;28;20028;-68
2022/07/02 07:01:01;;;;;;;7.32;2.17;;;;;;;;;;5091817;28;20073;-68
2022/07/02 07:03:26;;;;;;;9.23;2.65;;;;;;;;;;5093666;28;20023;-68
2022/07/02 07:05:52;;;;;;;6.18;2.17;;;;;;;;;;5093567;28;20024;-68
2022/07/02 07:08:17;;;;;;;6.28;2.30;;;;;;;;;;5093253;28;20017;-68
2022/07/02 07:10:42;;;;;;;7.80;2.20;;;;;;;;;;5093054;28;20434;-68
2022/07/02 07:13:08;;;;;;;4.82;2.47;;;;;;;;;;5093332;28;20513;-68
2022/07/02 07:15:33;;;;;;;6.05;1.85;;;;;;;;;;5091645;28;20460;-68
2022/07/02 07:17:58;;;;;;;9.05;2.08;;;;;;;;;;5078493;28;20485;-68
2022/07/02 07:20:29;;;;;;;6.47;1.63;;;;;;;;;;5073235;28;20452;-68
2022/07/02 07:22:54;;;;;;;9.00;2.03;;;;;;;;;;5073073;28;20490;-68
2022/07/02 07:25:20;;;;;;;8.55;1.98;;;;;;;;;;5073273;28;20047;-68
2022/07/02 07:27:45;;;;;;;4.53;1.40;;;;;;;;;;5072921;28;20044;-67
2022/07/02 07:30:10;;;;;;;9.77;1.77;;;;;;;;;;5074365;28;20038;-68
2022/07/02 07:32:36;;;;;;;4.95;1.63;;;;;;;;;;5092998;28;20017;-68
2022/07/02 07:35:01;;;;;;;6.57;1.80;;;;;;;;;;5092836;28;20028;-67
2022/07/02 07:37:26;;;;;;;7.75;1.60;;;;;;;;;;5092362;28;20024;-67
2022/07/02 07:39:51;;;;;;;5.35;1.40;;;;;;;;;;5092432;28;20107;-68
2022/07/02 07:42:16;;;;;;;8.27;1.40;;;;;;;;;;5072709;28;20052;-67
2022/07/02 07:44:42;;;;;;;6.35;1.30;;;;;;;;;;5072503;28;20621;-68
2022/07/02 07:47:07;;;;;;;5.45;1.45;;;;;;;;;;5088080;28;20036;-68
2022/07/02 07:49:33;;;;;;;7.68;1.40;;;;;;;;;;5092593;28;20014;-67
2022/07/02 07:51:58;;;;;;;4.85;1.20;;;;;;;;;;5090026;28;20035;-67
2022/07/02 07:54:23;;;;;;;4.78;1.45;;;;;;;;;;5072296;28;20032;-67
2022/07/02 07:56:49;;;;;;;6.30;1.35;;;;;;;;;;5072597;28;20071;-67
2022/07/02 07:59:14;;;;;;;7.82;1.13;;;;;;;;;;5072292;28;20078;-67
2022/07/02 08:01:40;;;;;;;3.80;1.15;;;;;;;;;;5082038;28;20055;-68
2022/07/02 08:04:05;;;;;;;5.68;1.50;;;;;;;;;;5092470;28;20020;-68
2022/07/02 08:06:30;;;;;;;5.18;1.35;;;;;;;;;;5090475;28;20024;-68
2022/07/02 08:08:55;;;;;;;5.65;1.30;;;;;;;;;;5091939;28;20015;-68
2022/07/02 08:11:20;;;;;;;4.72;1.30;;;;;;;;;;5088762;28;20016;-68
2022/07/02 08:13:46;;;;;;;4.55;1.08;;;;;;;;;;5072238;28;20047;-68
2022/07/02 08:16:11;;;;;;;5.80;1.10;;;;;;;;;;5086242;28;20408;-68
2022/07/02 08:18:36;;;;;;;6.88;1.27;;;;;;;;;;5071759;28;20451;-68
2022/07/02 08:21:01;;;;;;;4.10;1.20;;;;;;;;;;5079500;28;20025;-68
2022/07/02 08:23:27;;;;;;;4.68;1.30;;;;;;;;;;5086852;28;20023;-68
2022/07/02 08:25:54;;;;;;;5.95;1.05;;;;;;;;;;5092022;28;20043;-67
2022/07/02 08:28:19;;;;;;;5.13;1.05;;;;;;;;;;5092123;28;20056;-68
2022/07/02 08:30:45;;;;;;;5.93;1.02;;;;;;;;;;5088641;28;20458;-67
2022/07/02 08:33:12;;;;;;;4.68;1.10;;;;;;;;;;5091048;28;20023;-68
2022/07/02 08:35:37;;;;;;;4.88;1.00;;;;;;;;;;5091775;28;20027;-68
2022/07/02 08:38:03;;;;;;;4.65;1.10;;;;;;;;;;5091519;28;20464;-68
2022/07/02 08:40:29;;;;;;;3.80;1.00;;;;;;;;;;5092006;28;20089;-68
2022/07/02 08:42:55;;;;;;;4.20;1.15;;;;;;;;;;5090122;28;20023;-68
2022/07/02 08:45:21;;;;;;;4.65;1.10;;;;;;;;;;5089939;28;20391;-68
2022/07/02 08:47:47;;;;;;;6.45;1.00;;;;;;;;;;5089642;28;20095;-68
2022/07/02 08:50:13;;;;;;;4.60;1.30;;;;;;;;;;5071092;28;20033;-68
2022/07/02 08:52:40;;;;;;;4.50;1.10;;;;;;;;;;5071654;28;20606;-68
2022/07/02 08:55:05;;;;;;;3.65;1.00;;;;;;;;;;5082338;28;20516;-68
2022/07/02 08:57:32;;;;;;;4.45;0.98;;;;;;;;;;5091745;28;20016;-67
2022/07/02 08:59:57;;;;;;;4.00;0.80;;;;;;;;;;5091471;28;20099;-68
2022/07/02 09:02:25;;;;;;;3.83;0.90;;;;;;;;;;5089065;28;20095;-68
2022/07/02 09:04:50;;;;;;;5.63;0.90;;;;;;;;;;5091716;28;20478;-68
2022/07/02 09:07:17;;;;;;;4.43;0.90;;;;;;;;;;5091036;28;20020;-67
2022/07/02 09:09:43;;;;;;;6.28;1.00;;;;;;;;;;5091438;28;20040;-68
2022/07/02 09:12:12;;;;;;;4.00;0.80;;;;;;;;;;5090427;28;20546;-68
2022/07/02 09:14:37;;;;;;;4.88;0.88;;;;;;;;;;5091650;28;20032;-67
2022/07/02 09:17:04;;;;;;;3.13;0.93;;;;;;;;;;5082689;28;20023;-68
2022/07/02 09:19:30;;;;;;;3.47;0.80;;;;;;;;;;5070615;28;20025;-68
2022/07/02 09:21:55;;;;;;;7.28;1.08;;;;;;;;;;5071455;28;20017;-68
2022/07/02 09:24:28;;;;;;;4.95;1.15;;;;;;;;;;5085039;28;20028;-67
2022/07/02 09:27:00;;;;;;;4.32;1.05;;;;;;;;;;5091236;28;20114;-67
2022/07/02 09:29:25;;;;;;;2.88;0.95;;;;;;;;;;5091039;28;20023;-68
2022/07/02 09:31:50;;;;;;;3.75;0.90;;;;;;;;;;5089655;28;20024;-68
2022/07/02 09:34:26;;;;;;;3.70;1.00;;;;;;;;;;5091160;28;20016;-68
2022/07/02 09:36:51;;;;;;;2.83;0.88;;;;;;;;;;5091370;28;20064;-68
2022/07/02 09:39:26;;;;;;;4.28;0.95;;;;;;;;;;5091140;28;20682;-68
2022/07/02 09:41:51;;;;;;;5.75;1.00;;;;;;;;;;5080881;28;20085;-68
2022/07/02 09:44:16;;;;;;;5.18;0.90;;;;;;;;;;5073217;28;20464;-68
2022/07/02 09:46:43;;;;;;;5.00;1.55;;;;;;;;;;5090150;28;20137;-68
2022/07/02 09:49:08;;;;;;;3.33;0.90;;;;;;;;;;5091049;28;20023;-68
2022/07/02 09:51:45;;;;;;;4.93;1.10;;;;;;;;;;5090764;28;20476;-68
2022/07/02 09:54:16;;;;;;;4.55;1.20;;;;;;;;;;5079531;28;20472;-68
2022/07/02 09:56:49;;;;;;;3.67;0.95;;;;;;;;;;5070675;28;20095;-67
2022/07/02 09:59:14;;;;;;;2.38;0.80;;;;;;;;;;5070639;28;20028;-68
2022/07/02 10:01:42;;;;;;;5.55;1.10;;;;;;;;;;5084742;28;20024;-67
2022/07/02 10:04:07;;;;;;;8.65;1.10;;;;;;;;;;5090946;28;20028;-67
2022/07/02 10:06:33;;;;;;;6.85;1.15;;;;;;;;;;5080512;28;20012;-68
2022/07/02 10:08:59;;;;;;;3.80;1.00;;;;;;;;;;5084906;28;20009;-68
2022/07/02 10:11:24;;;;;;;3.50;0.90;;;;;;;;;;5070430;28;20060;-68
2022/07/02 10:13:50;;;;;;;7.10;1.00;;;;;;;;;;5088740;28;20020;-67
2022/07/02 10:16:19;;;;;;;4.22;0.80;;;;;;;;;;5088107;28;20028;-67
2022/07/02 10:18:44;;;;;;;5.63;0.90;;;;;;;;;;5070812;28;20373;-68
2022/07/02 10:21:11;;;;;;;5.15;0.80;;;;;;;;;;5070457;28;20082;-68
2022/07/02 10:23:37;;;;;;;5.32;0.90;;;;;;;;;;5070609;28;20028;-68
2022/07/02 10:26:02;;;;;;;4.57;0.90;;;;;;;;;;5085108;28;20461;-68
2022/07/02 10:28:28;;;;;;;3.95;0.88;;;;;;;;;;5090801;28;20031;-68
2022/07/02 10:30:53;;;;;;;4.72;0.90;;;;;;;;;;5089865;28;20073;-68
2022/07/02 10:33:35;;;;;;;11.95;0.80;;;;;;;;;;5094440;28;20495;-68
2022/07/02 10:36:01;;;;;;;3.50;0.77;;;;;;;;;;5091119;28;20043;-68
2022/07/02 10:38:28;;;;;;;3.30;0.90;;;;;;;;;;5094396;28;20043;-68
2022/07/02 10:40:53;;;;;;;3.65;0.77;;;;;;;;;;5092680;28;20131;-67
2022/07/02 10:43:19;;;;;;;2.80;0.80;;;;;;;;;;5094030;28;20027;-68
2022/07/02 10:45:44;;;;;;;3.47;0.68;;;;;;;;;;5092223;28;20024;-68
2022/07/02 10:48:11;;;;;;;4.78;0.80;;;;;;;;;;5094162;28;20084;-68
2022/07/02 10:50:37;;;;;;;3.95;0.90;;;;;;;;;;5082122;28;20115;-68
2022/07/02 10:53:12;;;;;;;3.28;0.82;;;;;;;;;;5073776;28;20407;-68
2022/07/02 10:55:38;;;;;;;5.00;1.00;;;;;;;;;;5073752;28;20028;-68
2022/07/02 10:58:05;;;;;;;5.30;0.80;;;;;;;;;;5073583;28;20028;-68
2022/07/02 11:00:35;;;;;;;3.55;1.00;;;;;;;;;;5079726;28;20097;-67
2022/07/02 11:03:12;;;;;;;5.53;0.90;;;;;;;;;;5093460;28;20027;-68
2022/07/02 11:05:56;;;;;;;3.78;0.93;;;;;;;;;;5091546;28;20024;-68
2022/07/02 11:08:40;;;;;;;4.35;0.90;;;;;;;;;;5093271;28;20040;-68
2022/07/02 11:11:05;;;;;;;3.50;0.70;;;;;;;;;;5093368;28;20020;-68
2022/07/02 11:13:34;;;;;;;2.17;0.68;;;;;;;;;;5093606;28;20097;-68
2022/07/02 11:16:00;;;;;;;4.45;1.17;;;;;;;;;;5083326;28;20032;-67
2022/07/02 11:18:26;;;;;;;5.18;0.80;;;;;;;;;;5091699;28;20427;-68
2022/07/02 11:20:51;;;;;;;2.22;0.75;;;;;;;;;;5093323;28;20042;-68
2022/07/02 11:23:17;;;;;;;4.40;0.80;;;;;;;;;;5093356;28;20095;-68
2022/07/02 11:25:42;;;;;;;4.40;0.93;;;;;;;;;;5093613;28;20020;-68
2022/07/02 11:28:07;;;;;;;2.60;0.60;;;;;;;;;;5092237;28;20016;-68
2022/07/02 11:30:33;;;;;;;2.90;0.60;;;;;;;;;;5091251;28;20024;-69
2022/07/02 11:32:59;;;;;;;5.30;0.95;;;;;;;;;;5092896;28;20016;-67
2022/07/02 11:35:24;;;;;;;3.47;0.70;;;;;;;;;;5093227;28;20368;-68
2022/07/02 11:37:54;;;;;;;2.30;0.70;;;;;;;;;;5083295;28;20487;-68
2022/07/02 11:40:23;;;;;;;6.95;0.82;;;;;;;;;;5072899;28;20662;-67
2022/07/02 11:42:49;;;;;;;3.92;0.80;;;;;;;;;;5079970;28;20483;-68
2022/07/02 11:45:14;;;;;;;5.28;0.80;;;;;;;;;;5092371;28;20020;-68
2022/07/02 11:47:46;;;;;;;2.25;0.68;;;;;;;;;;5091726;28;20055;-67
2022/07/02 11:50:12;;;;;;;1.90;0.75;;;;;;;;;;5092491;28;20051;-68
2022/07/02 11:52:37;;;;;;;2.58;0.80;;;;;;;;;;5092393;28;20020;-68
2022/07/02 11:55:03;;;;;;;2.53;0.70;;;;;;;;;;5092618;28;20020;-67
2022/07/02 11:57:34;;;;;;;3.55;0.80;;;;;;;;;;5090961;28;20161;-67
2022/07/02 12:00:00;;;;;;;3.20;0.70;;;;;;;;;;5091865;28;20016;-68
2022/07/02 12:02:35;;;;;;;3.42;0.80;;;;;;;;;;5087967;28;20384;-68
2022/07/02 12:05:00;;;;;;;5.72;0.80;;;;;;;;;;5072081;28;20032;-68
2022/07/02 12:07:26;;;;;;;2.58;0.75;;;;;;;;;;5082474;28;20020;-67
2022/07/02 12:09:52;;;;;;;3.55;0.80;;;;;;;;;;5091793;28;20028;-67
2022/07/02 12:12:18;;;;;;;3.35;0.80;;;;;;;;;;5092274;28;20027;-67
2022/07/02 12:14:49;;;;;;;3.45;0.90;;;;;;;;;;5092306;28;20099;-67
2022/07/02 12:17:14;;;;;;;2.90;0.80;;;;;;;;;;5079782;28;20025;-67
2022/07/02 12:19:40;;;;;;;2.38;0.70;;;;;;;;;;5075523;28;20032;-67
2022/07/02 12:22:05;;;;;;;2.65;0.80;;;;;;;;;;5075047;28;20020;-67
2022/07/02 12:24:30;;;;;;;2.58;0.77;;;;;;;;;;5091993;28;20031;-67
2022/07/02 12:27:05;;;;;;;2.33;0.70;;;;;;;;;;5091997;28;20048;-67
2022/07/02 12:32:16;;;;;;;2.40;0.70;;;;;;;;;;5090300;28;20510;-67
2022/07/02 12:34:43;;;;;;;2.38;0.70;;;;;;;;;;5092423;28;20023;-68
2022/07/02 12:37:23;;;;;;;5.93;0.80;;;;;;;;;;5091793;28;20016;-67
2022/07/02 12:39:50;;;;;;;4.88;1.02;;;;;;;;;;5083945;28;20043;-68
2022/07/02 12:42:17;;;;;;;2.28;0.57;;;;;;;;;;5071606;28;20400;-67
2022/07/02 12:44:51;;;;;;;2.92;0.70;;;;;;;;;;5074334;28;20029;-67
2022/07/02 12:47:30;;;;;;;3.47;0.80;;;;;;;;;;5071932;28;20089;-67
2022/07/02 12:49:58;;;;;;;2.53;0.80;;;;;;;;;;5070891;28;20154;-67
2022/07/02 12:52:24;;;;;;;5.60;0.98;;;;;;;;;;5071283;28;20013;-67
2022/07/02 12:54:49;;;;;;;3.85;0.73;;;;;;;;;;5074558;28;20497;-67
2022/07/02 12:57:15;;;;;;;4.45;0.75;;;;;;;;;;5091348;28;20103;-67
2022/07/02 12:59:41;;;;;;;3.25;0.90;;;;;;;;;;5089466;28;20028;-67
2022/07/02 13:02:07;;;;;;;3.88;0.88;;;;;;;;;;5085143;28;20024;-67
2022/07/02 13:04:33;;;;;;;7.63;0.93;;;;;;;;;;5071287;28;20074;-67
2022/07/02 13:06:58;;;;;;;2.45;0.73;;;;;;;;;;5077601;28;20023;-67
2022/07/02 13:09:23;;;;;;;7.82;0.80;;;;;;;;;;5091579;28;20035;-67
2022/07/02 13:11:48;;;;;;;3.75;0.80;;;;;;;;;;5090931;28;20024;-67
2022/07/02 13:14:14;;;;;;;2.45;0.70;;;;;;;;;;5091326;28;20081;-66
2022/07/02 13:16:39;;;;;;;4.35;0.98;;;;;;;;;;5075029;28;20384;-66
2022/07/02 13:19:04;;;;;;;2.92;0.75;;;;;;;;;;5077406;28;20020;-67
2022/07/02 13:21:29;;;;;;;3.42;0.80;;;;;;;;;;5074753;28;20028;-67
2022/07/02 13:23:55;;;;;;;2.45;0.60;;;;;;;;;;5090079;28;20084;-67
2022/07/02 13:26:20;;;;;;;1.88;0.50;;;;;;;;;;5090373;28;20016;-67
2022/07/02 13:28:45;;;;;;;2.40;0.70;;;;;;;;;;5082898;28;20032;-66
2022/07/02 13:31:11;;;;;;;3.05;0.70;;;;;;;;;;5083816;28;20024;-67
2022/07/02 13:33:36;;;;;;;1.92;0.50;;;;;;;;;;5086917;28;20043;-67
2022/07/02 13:36:01;;;;;;;1.73;0.65;;;;;;;;;;5077592;28;20488;-67
2022/07/02 13:38:27;;;;;;;3.42;0.88;;;;;;;;;;5073750;28;20047;-67
2022/07/02 13:40:52;;;;;;;2.60;0.70;;;;;;;;;;5080519;28;20020;-67
2022/07/02 13:43:17;;;;;;;1.95;0.60;;;;;;;;;;5085816;28;20035;-67
2022/07/02 13:45:42;;;;;;;4.13;0.77;;;;;;;;;;5081580;28;20020;-67
2022/07/02 13:48:08;;;;;;;3.17;0.70;;;;;;;;;;5077633;28;20024;-67
2022/07/02 13:50:34;;;;;;;8.75;0.98;;;;;;;;;;5084850;28;20055;-67
2022/07/02 13:52:59;;;;;;;2.25;0.80;;;;;;;;;;5070708;28;20025;-67
2022/07/02 13:55:24;;;;;;;2.58;0.60;;;;;;;;;;5070210;28;20032;-67
2022/07/02 13:57:50;;;;;;;2.17;0.68;;;;;;;;;;5070396;28;20021;-66
2022/07/02 14:00:15;;;;;;;3.88;0.70;;;;;;;;;;5077558;28;20100;-67
2022/07/02 14:02:40;;;;;;;2.83;0.90;;;;;;;;;;5085970;28;20032;-66
2022/07/02 14:05:06;;;;;;;2.13;0.73;;;;;;;;;;5081995;28;20024;-66
2022/07/02 14:07:31;;;;;;;4.22;0.80;;;;;;;;;;5088634;28;20024;-66
2022/07/02 14:09:56;;;;;;;3.10;0.80;;;;;;;;;;5077823;28;20464;-66
2022/07/02 14:12:22;;;;;;;3.40;0.70;;;;;;;;;;5074692;28;20095;-67
2022/07/02 14:14:47;;;;;;;2.72;0.70;;;;;;;;;;5082019;28;20024;-66
2022/07/02 14:17:13;;;;;;;3.63;0.77;;;;;;;;;;5087401;28;20028;-66
2022/07/02 14:19:38;;;;;;;2.95;0.63;;;;;;;;;;5092719;28;20032;-66
2022/07/02 14:22:03;;;;;;;3.35;0.90;;;;;;;;;;5091866;28;20025;-67
2022/07/02 14:24:29;;;;;;;2.72;0.80;;;;;;;;;;5087250;28;20353;-67
2022/07/02 14:26:54;;;;;;;2.55;0.70;;;;;;;;;;5088297;28;20012;-67
2022/07/02 14:29:19;;;;;;;3.97;1.00;;;;;;;;;;5082083;28;20481;-67
2022/07/02 14:31:46;;;;;;;3.85;0.82;;;;;;;;;;5075023;28;20058;-67
2022/07/02 14:34:11;;;;;;;6.38;0.70;;;;;;;;;;5092143;28;20036;-67
2022/07/02 14:36:37;;;;;;;4.75;0.70;;;;;;;;;;5078607;28;20036;-67
2022/07/02 14:39:02;;;;;;;4.55;0.70;;;;;;;;;;5076980;28;20029;-67
2022/07/02 14:41:30;;;;;;;1.63;0.50;;;;;;;;;;5073654;28;20021;-66